Time;durP1;ratioP1;P1;durP2;ratioP2;P2;SDS_P1;SDS_P2;PMS_P1;PMS_P2;Temp;Humidity;BMP_temperature;BMP_pressure;BME280_temperature;BME280_humidity;BME280_pressure;Samples;Min_cycle;Max_cycle;Signal;HPM_P1;HPM_P2
2022/06/29 00:00:19;;;;;;;12.90;9.40;;;;;;;21.83;100.00;100244.26;1691369;84;21127;-60
2022/06/29 00:02:46;;;;;;;12.20;9.47;;;;;;;21.89;100.00;100250.37;1691755;84;21514;-64
2022/06/29 00:05:15;;;;;;;11.50;8.17;;;;;;;21.97;100.00;100256.55;1686694;84;21155;-62
2022/06/29 00:07:43;;;;;;;10.70;8.77;;;;;;;21.83;100.00;100251.42;1681732;84;21023;-66
2022/06/29 00:10:11;;;;;;;9.67;8.67;;;;;;;21.78;100.00;100253.53;1669698;84;21083;-59
2022/06/29 00:12:39;;;;;;;10.00;8.50;;;;;;;21.89;100.00;100250.37;1692397;84;21455;-71
2022/06/29 00:15:07;;;;;;;9.47;8.47;;;;;;;21.98;100.00;100248.05;1668981;84;21119;-59
2022/06/29 00:17:35;;;;;;;10.27;8.13;;;;;;;21.98;100.00;100250.17;1680522;84;21267;-59
2022/06/29 00:20:04;;;;;;;9.33;8.37;;;;;;;21.99;100.00;100250.97;1679082;84;21115;-59
2022/06/29 00:22:31;;;;;;;10.90;7.63;;;;;;;21.98;100.00;100246.72;1642700;86;21079;-63
2022/06/29 00:24:59;;;;;;;9.10;7.57;;;;;;;21.95;100.00;100247.23;1690575;84;21031;-61
2022/06/29 00:27:26;;;;;;;8.40;7.30;;;;;;;21.90;100.00;100250.67;1674907;84;21134;-59
2022/06/29 00:29:53;;;;;;;9.50;7.87;;;;;;;21.71;100.00;100245.00;1680778;84;21836;-59
2022/06/29 00:32:20;;;;;;;10.40;7.70;;;;;;;21.71;100.00;100244.20;1676780;84;21499;-61
2022/06/29 00:34:48;;;;;;;10.70;7.20;;;;;;;21.73;100.00;100241.55;1679846;84;21083;-70
2022/06/29 00:37:15;;;;;;;9.37;7.57;;;;;;;21.79;100.00;100240.52;1687235;84;20981;-61
2022/06/29 00:39:42;;;;;;;10.73;7.10;;;;;;;21.72;100.00;100243.14;1689848;84;21007;-61
2022/06/29 00:42:09;;;;;;;9.27;7.00;;;;;;;21.72;100.00;100243.14;1683220;84;21291;-60
2022/06/29 00:44:36;;;;;;;9.63;6.93;;;;;;;21.67;100.00;100239.11;1685092;84;21028;-59
2022/06/29 00:47:04;;;;;;;8.50;6.47;;;;;;;21.68;100.00;100246.83;1682266;84;21026;-70
2022/06/29 00:49:33;;;;;;;10.67;6.90;;;;;;;21.55;100.00;100245.41;1685416;84;21455;-61
2022/06/29 00:52:08;;;;;;;9.37;7.10;;;;;;;21.56;100.00;100245.70;1693568;84;21146;-59
2022/06/29 00:54:38;;;;;;;9.03;6.43;;;;;;;21.57;100.00;100246.50;1688345;84;21263;-61
2022/06/29 00:57:21;;;;;;;8.60;6.40;;;;;;;21.49;100.00;100258.38;1682145;84;21493;-67
2022/06/29 00:59:50;;;;;;;8.63;7.30;;;;;;;21.36;100.00;100253.50;1675151;84;21556;-60
2022/06/29 01:02:20;;;;;;;8.27;6.50;;;;;;;21.39;100.00;100255.65;1685552;84;21046;-69
2022/06/29 01:04:47;;;;;;;10.57;6.03;;;;;;;21.39;100.00;100259.62;1672336;83;21413;-64
2022/06/29 01:07:16;;;;;;;10.00;7.30;;;;;;;21.38;100.00;100254.06;1694810;84;22213;-59
2022/06/29 01:09:43;;;;;;;12.00;7.37;;;;;;;21.41;100.00;100252.77;1694770;84;21054;-59
2022/06/29 01:12:11;;;;;;;8.97;6.70;;;;;;;21.37;100.00;100251.14;1688271;84;21497;-60
2022/06/29 01:14:42;;;;;;;9.23;6.33;;;;;;;21.37;100.00;100256.45;1697401;83;21161;-59
2022/06/29 01:17:09;;;;;;;;;;;;;;;21.34;100.00;100247.67;1663985;85;21446;-68
2022/06/29 01:19:40;;;;;;;7.80;6.77;;;;;;;21.37;100.00;100251.14;1659199;86;22240;-59
2022/06/29 01:22:12;;;;;;;8.03;6.17;;;;;;;21.37;100.00;100252.47;1693075;84;21517;-60
2022/06/29 01:24:40;;;;;;;11.30;6.27;;;;;;;21.36;100.00;100262.25;1695819;84;21037;-59
2022/06/29 01:27:07;;;;;;;8.70;6.23;;;;;;;21.32;100.00;100260.34;1697168;83;21615;-60
2022/06/29 01:29:34;;;;;;;6.83;5.77;;;;;;;21.33;100.00;100261.45;1688912;83;21956;-60
2022/06/29 01:32:02;;;;;;;9.07;6.40;;;;;;;21.29;100.00;100258.19;1668147;84;21890;-62
2022/06/29 01:34:32;;;;;;;8.17;6.10;;;;;;;21.12;100.00;100257.01;1670787;85;21001;-59
2022/06/29 01:36:59;;;;;;;8.27;5.83;;;;;;;21.06;100.00;100259.33;1657842;85;21026;-70
2022/06/29 01:39:27;;;;;;;7.70;5.73;;;;;;;21.04;100.00;100264.09;1695567;84;21993;-60
2022/06/29 01:41:54;;;;;;;7.77;6.07;;;;;;;21.02;100.00;100266.98;1667866;85;21036;-60
2022/06/29 01:44:22;;;;;;;9.83;6.00;;;;;;;21.00;100.00;100265.13;1697630;84;21144;-58
2022/06/29 01:46:49;;;;;;;11.20;6.43;;;;;;;21.02;100.00;100269.62;1695078;84;21074;-68
2022/06/29 01:49:16;;;;;;;8.37;5.60;;;;;;;21.03;100.00;100269.13;1700475;83;21070;-58
2022/06/29 01:51:43;;;;;;;7.33;5.93;;;;;;;21.00;100.00;100277.05;1668120;85;21114;-60
2022/06/29 01:54:11;;;;;;;8.77;6.30;;;;;;;20.98;100.00;100278.34;1680536;84;20968;-60
2022/06/29 01:56:39;;;;;;;7.20;5.40;;;;;;;20.98;100.00;100279.14;1690206;84;22287;-58
2022/06/29 01:59:06;;;;;;;7.40;5.47;;;;;;;21.05;100.00;100285.03;1695104;84;21564;-68
2022/06/29 02:01:34;;;;;;;8.33;6.20;;;;;;;21.16;100.00;100284.61;1701679;83;21016;-58
2022/06/29 02:04:02;;;;;;;7.37;5.70;;;;;;;21.37;100.00;100280.31;1670843;83;21708;-59
2022/06/29 02:06:29;;;;;;;7.10;5.57;;;;;;;21.65;100.00;100281.03;1658310;85;21856;-59
2022/06/29 02:08:57;;;;;;;8.70;5.70;;;;;;;21.95;100.00;100285.19;1681496;83;21185;-68
2022/06/29 02:11:24;;;;;;;7.77;5.93;;;;;;;22.20;100.00;100284.55;1678672;83;21087;-58
2022/06/29 02:13:52;;;;;;;9.57;6.00;;;;;;;22.44;100.00;100283.56;1688050;83;21090;-69
2022/06/29 02:16:20;;;;;;;8.63;5.07;;;;;;;22.69;100.00;100284.69;1699366;83;21105;-57
2022/06/29 02:18:48;;;;;;;8.10;5.90;;;;;;;22.91;100.00;100283.95;1689271;83;21072;-58
2022/06/29 02:21:15;;;;;;;6.90;5.10;;;;;;;23.21;100.00;100277.06;1692701;83;21276;-60
2022/06/29 02:23:44;;;;;;;6.90;5.47;;;;;;;23.39;100.00;100273.08;1693912;83;21641;-58
2022/06/29 02:26:12;;;;;;;7.93;5.40;;;;;;;23.67;100.00;100275.72;1655167;85;21033;-58
2022/06/29 02:28:39;;;;;;;7.30;5.90;;;;;;;23.89;100.00;100275.41;1664918;83;21082;-57
2022/06/29 02:36:39;;;;;;;5.93;5.20;;;;;;;24.67;100.00;100281.49;1672432;84;21044;-60
2022/06/29 02:39:06;;;;;;;8.73;5.00;;;;;;;24.91;100.00;100278.39;1692179;83;21432;-58
2022/06/29 02:41:34;;;;;;;8.77;5.20;;;;;;;25.16;100.00;100281.98;1682084;83;21079;-57
2022/06/29 02:44:02;;;;;;;8.07;5.40;;;;;;;25.46;100.00;100284.37;1686185;83;21525;-58
2022/06/29 02:46:29;;;;;;;5.73;4.60;;;;;;;25.71;100.00;100283.86;1690056;84;22082;-67
2022/06/29 02:48:56;;;;;;;9.10;5.83;;;;;;;26.03;100.00;100280.61;1688762;83;21040;-57
2022/06/29 02:51:25;;;;;;;16.90;5.47;;;;;;;26.29;100.00;100279.77;1677988;84;21348;-60
2022/06/29 02:53:53;;;;;;;6.17;4.90;;;;;;;26.64;100.00;100286.52;1687055;83;21054;-57
2022/06/29 02:56:20;;;;;;;7.17;5.08;;;;;;;26.99;100.00;100283.05;1679752;83;21036;-57
2022/06/29 02:58:47;;;;;;;7.85;5.80;;;;;;;27.21;100.00;100285.14;1675863;83;21236;-62
2022/06/29 03:01:14;;;;;;;6.42;5.03;;;;;;;27.37;100.00;100284.34;1679930;83;21039;-58
2022/06/29 03:03:41;;;;;;;5.90;4.97;;;;;;;27.61;100.00;100288.97;1686711;83;20983;-60
2022/06/29 03:06:08;;;;;;;6.65;5.17;;;;;;;27.85;100.00;100288.05;1699632;83;21137;-57
2022/06/29 03:08:35;;;;;;;6.42;5.08;;;;;;;27.97;100.00;100291.58;1698380;83;21036;-57
2022/06/29 03:11:03;;;;;;;9.08;5.15;;;;;;;28.21;100.00;100289.45;1697371;83;21128;-60
2022/06/29 03:13:30;;;;;;;7.28;5.35;;;;;;;28.50;100.00;100286.46;1711968;83;21451;-61
2022/06/29 03:15:57;;;;;;;7.47;5.15;;;;;;;28.69;94.91;100285.52;1702287;83;21048;-57
2022/06/29 03:18:26;;;;;;;8.80;5.47;;;;;;;28.89;90.87;100289.05;1707084;83;21872;-57
2022/06/29 03:20:53;;;;;;;7.25;5.03;;;;;;;29.01;88.73;100292.56;1707171;83;21533;-67
2022/06/29 03:23:20;;;;;;;9.68;5.60;;;;;;;29.12;84.38;100284.50;1692010;83;22425;-59
2022/06/29 03:25:48;;;;;;;8.08;5.55;;;;;;;29.12;83.42;100289.88;1689669;83;21067;-66
2022/06/29 03:28:16;;;;;;;8.03;6.08;;;;;;;29.21;80.27;100296.11;1697233;83;22166;-58
2022/06/29 03:30:44;;;;;;;10.32;6.10;;;;;;;29.19;76.96;100282.73;1709298;83;21044;-57
2022/06/29 03:33:11;;;;;;;8.28;5.47;;;;;;;29.15;77.19;100289.27;1704865;83;21150;-58
2022/06/29 03:35:39;;;;;;;7.37;5.20;;;;;;;29.10;76.31;100286.72;1701919;83;21152;-62
2022/06/29 03:38:06;;;;;;;6.65;5.70;;;;;;;29.20;77.83;100293.70;1695539;83;21255;-58
2022/06/29 03:40:33;;;;;;;8.80;5.20;;;;;;;29.30;77.78;100296.94;1708872;83;21071;-58
2022/06/29 03:43:00;;;;;;;7.70;5.20;;;;;;;29.52;74.10;100295.31;1696406;83;21111;-57
2022/06/29 03:45:28;;;;;;;6.00;5.03;;;;;;;29.63;70.29;100300.70;1704879;83;21050;-66
2022/06/29 03:47:55;;;;;;;8.00;5.75;;;;;;;29.65;69.97;100302.51;1693013;83;22180;-58
2022/06/29 03:50:22;;;;;;;7.80;4.47;;;;;;;29.69;68.88;100306.16;1707351;83;21722;-57
2022/06/29 03:52:49;;;;;;;8.98;5.22;;;;;;;29.80;67.18;100306.13;1711834;83;21443;-57
2022/06/29 03:55:16;;;;;;;6.67;5.10;;;;;;;29.66;69.16;100306.77;1712013;83;21075;-58
2022/06/29 03:57:43;;;;;;;7.85;5.03;;;;;;;29.76;68.92;100314.56;1709945;83;21343;-61
2022/06/29 04:00:12;;;;;;;7.42;4.70;;;;;;;30.00;68.19;100316.06;1707181;83;21582;-57
2022/06/29 04:02:39;;;;;;;8.85;5.58;;;;;;;30.19;65.55;100308.58;1703718;83;21046;-57
2022/06/29 04:05:07;;;;;;;7.90;5.33;;;;;;;30.29;64.44;100310.95;1702022;83;21013;-57
2022/06/29 04:07:35;;;;;;;7.22;5.28;;;;;;;30.27;65.22;100307.02;1704479;84;21071;-65
2022/06/29 04:10:02;;;;;;;7.28;5.08;;;;;;;30.35;66.08;100309.48;1693495;84;21139;-58
2022/06/29 04:12:33;;;;;;;6.85;5.12;;;;;;;30.44;64.47;100311.61;1689652;84;21490;-58
2022/06/29 04:15:01;;;;;;;6.40;4.78;;;;;;;30.61;64.40;100315.67;1691779;84;20937;-57
2022/06/29 04:17:28;;;;;;;7.35;4.70;;;;;;;30.62;62.83;100313.22;1691018;84;21001;-65
2022/06/29 04:19:55;;;;;;;9.63;5.33;;;;;;;30.76;64.84;100320.62;1691138;84;21090;-57
2022/06/29 04:22:25;;;;;;;8.63;5.20;;;;;;;31.01;62.77;100316.87;1682201;84;21480;-57
2022/06/29 04:24:52;;;;;;;6.75;4.92;;;;;;;31.26;61.77;100317.39;1691715;84;21241;-57
2022/06/29 04:27:20;;;;;;;8.75;5.50;;;;;;;31.58;60.20;100309.08;1694965;84;20982;-65
2022/06/29 04:29:47;;;;;;;5.70;4.58;;;;;;;31.86;59.33;100321.59;1690937;83;21095;-57
2022/06/29 04:32:15;;;;;;;6.90;5.42;;;;;;;32.21;58.50;100324.91;1680398;84;21501;-58
2022/06/29 04:34:42;;;;;;;6.28;4.87;;;;;;;32.60;55.67;100321.57;1702720;83;21028;-58
2022/06/29 04:37:10;;;;;;;8.75;4.90;;;;;;;32.66;52.97;100313.52;1688303;84;21236;-56
2022/06/29 04:39:37;;;;;;;5.72;4.75;;;;;;;32.72;52.04;100324.33;1689627;84;21015;-66
2022/06/29 04:42:05;;;;;;;7.45;5.28;;;;;;;32.77;51.06;100325.48;1691397;83;21524;-57
2022/06/29 04:44:31;;;;;;;7.20;5.55;;;;;;;32.71;50.91;100322.75;1685952;84;21052;-58
2022/06/29 04:46:59;;;;;;;7.42;5.75;;;;;;;32.73;50.23;100312.96;1682149;83;21486;-57
2022/06/29 04:49:28;;;;;;;10.25;5.45;;;;;;;32.83;49.81;100316.62;1694148;84;21387;-58
2022/06/29 04:51:56;;;;;;;7.08;5.60;;;;;;;32.85;49.96;100321.14;1694023;84;21011;-63
2022/06/29 04:54:23;;;;;;;9.20;6.25;;;;;;;33.03;51.25;100326.61;1684598;84;21084;-56
2022/06/29 04:56:50;;;;;;;9.68;6.53;;;;;;;33.46;49.98;100324.61;1690677;84;21063;-58
2022/06/29 04:59:19;;;;;;;8.48;5.50;;;;;;;33.73;49.13;100334.02;1693561;84;21008;-60
2022/06/29 05:01:48;;;;;;;7.60;6.12;;;;;;;33.93;48.70;100330.97;1688497;84;21703;-60
2022/06/29 05:04:16;;;;;;;8.15;6.30;;;;;;;34.24;46.29;100340.66;1698093;84;21576;-57
2022/06/29 05:06:43;;;;;;;10.98;6.40;;;;;;;34.30;45.49;100334.46;1691257;83;21241;-57
2022/06/29 05:09:10;;;;;;;7.28;6.22;;;;;;;34.39;45.63;100339.16;1691363;83;21083;-58
2022/06/29 05:11:38;;;;;;;9.53;5.87;;;;;;;34.55;44.99;100342.78;1692638;83;21062;-61
2022/06/29 05:14:05;;;;;;;7.45;5.72;;;;;;;34.77;44.42;100340.09;1710332;83;21630;-60
2022/06/29 05:16:34;;;;;;;6.20;5.53;;;;;;;34.97;44.65;100344.33;1710600;83;20968;-57
2022/06/29 05:19:01;;;;;;;10.25;6.22;;;;;;;35.36;44.27;100348.67;1713264;83;21447;-56
2022/06/29 05:21:30;;;;;;;7.92;5.72;;;;;;;35.85;42.19;100349.14;1704032;83;20952;-57
2022/06/29 05:23:58;;;;;;;7.67;6.20;;;;;;;36.06;41.96;100350.22;1697237;83;21075;-64
2022/06/29 05:26:26;;;;;;;7.67;6.12;;;;;;;36.30;41.16;100347.86;1700173;83;21513;-57
2022/06/29 05:28:53;;;;;;;7.50;6.22;;;;;;;36.39;39.70;100347.08;1691919;83;21030;-58
2022/06/29 05:31:20;;;;;;;6.97;5.90;;;;;;;36.28;39.59;100348.78;1697137;83;21505;-56
2022/06/29 05:33:47;;;;;;;8.23;6.37;;;;;;;36.16;39.45;100351.05;1700324;83;20968;-66
2022/06/29 05:36:14;;;;;;;10.48;6.08;;;;;;;35.94;40.05;100350.30;1694866;83;21106;-59
2022/06/29 05:38:41;;;;;;;9.65;5.55;;;;;;;35.77;40.47;100350.90;1708631;83;21467;-57
2022/06/29 05:41:08;;;;;;;7.17;6.10;;;;;;;35.74;41.92;100347.53;1691276;83;21032;-58
2022/06/29 05:43:36;;;;;;;8.18;6.20;;;;;;;36.09;40.95;100356.88;1691795;83;21565;-58
2022/06/29 05:46:04;;;;;;;6.60;5.65;;;;;;;36.25;40.77;100354.33;1691044;83;21058;-57
2022/06/29 05:48:32;;;;;;;8.13;5.70;;;;;;;36.27;40.11;100355.36;1694423;83;21067;-57
2022/06/29 05:50:59;;;;;;;7.80;5.47;;;;;;;36.29;39.92;100355.23;1711679;83;21170;-57
2022/06/29 05:53:27;;;;;;;5.95;5.35;;;;;;;36.18;39.42;100356.92;1705483;83;21135;-57
2022/06/29 05:55:54;;;;;;;7.22;5.47;;;;;;;36.08;39.91;100351.24;1701498;83;20982;-58
2022/06/29 05:58:22;;;;;;;6.45;5.80;;;;;;;36.27;39.83;100350.70;1706514;83;21338;-66
2022/06/29 06:00:50;;;;;;;6.87;6.00;;;;;;;36.08;40.06;100339.81;1704695;83;21003;-58
2022/06/29 06:03:19;;;;;;;7.17;5.85;;;;;;;36.28;40.36;100348.78;1701443;83;21879;-57
2022/06/29 06:05:46;;;;;;;6.45;5.30;;;;;;;36.45;40.27;100341.59;1702334;82;21185;-65
2022/06/29 06:08:14;;;;;;;9.05;6.28;;;;;;;36.84;39.63;100353.06;1696804;84;21263;-57
2022/06/29 06:10:42;;;;;;;8.83;5.55;;;;;;;36.88;38.17;100351.20;1695220;83;21000;-58
2022/06/29 06:13:09;;;;;;;12.35;5.40;;;;;;;36.58;38.98;100348.27;1694976;84;21803;-57
2022/06/29 06:15:38;;;;;;;8.40;5.75;;;;;;;36.50;39.28;100350.05;1695127;84;21239;-57
2022/06/29 06:18:07;;;;;;;8.03;5.37;;;;;;;36.80;39.54;100356.29;1694756;83;21150;-58
2022/06/29 06:20:34;;;;;;;8.65;5.72;;;;;;;36.83;38.82;100343.35;1693678;84;20976;-57
2022/06/29 06:23:02;;;;;;;5.97;5.17;;;;;;;36.84;39.36;100353.84;1674105;84;21676;-57
2022/06/29 06:25:29;;;;;;;5.92;5.30;;;;;;;36.74;39.97;100347.62;1692974;83;21018;-64
2022/06/29 06:27:56;;;;;;;6.60;5.30;;;;;;;36.99;38.12;100346.79;1663913;84;22383;-58
2022/06/29 06:30:24;;;;;;;7.05;5.45;;;;;;;36.99;38.53;100343.50;1665871;85;21099;-64
2022/06/29 06:32:51;;;;;;;6.87;4.75;;;;;;;37.18;38.78;100345.97;1665132;86;21035;-56
2022/06/29 06:35:21;;;;;;;7.20;4.65;;;;;;;37.28;37.78;100344.02;1666130;86;21781;-57
2022/06/29 06:37:48;;;;;;;5.97;4.40;;;;;;;37.14;38.78;100343.77;1696969;83;21082;-59
2022/06/29 06:43:01;;;;;;;5.53;4.30;;;;;;;37.06;38.66;100336.63;1695360;84;21424;-57
2022/06/29 06:45:30;;;;;;;6.37;4.58;;;;;;;37.17;39.53;100332.95;1686386;83;20871;-57
2022/06/29 06:47:57;;;;;;;6.17;4.58;;;;;;;37.39;38.42;100331.41;1694763;83;21046;-57
2022/06/29 06:50:25;;;;;;;8.00;5.10;;;;;;;37.57;37.56;100328.98;1686863;84;21146;-56
2022/06/29 06:52:52;;;;;;;5.45;4.58;;;;;;;37.23;38.22;100323.92;1684381;84;21280;-56
2022/06/29 06:55:19;;;;;;;6.83;4.92;;;;;;;36.90;38.22;100326.61;1694457;84;20995;-58
2022/06/29 06:57:47;;;;;;;6.70;4.90;;;;;;;36.51;38.60;100331.25;1694999;84;21329;-56
2022/06/29 07:00:16;;;;;;;7.15;4.12;;;;;;;36.17;40.04;100329.54;1694360;83;21588;-59
2022/06/29 07:02:43;;;;;;;6.10;4.70;;;;;;;36.19;39.21;100325.91;1683268;84;21043;-59
2022/06/29 07:05:10;;;;;;;9.58;4.97;;;;;;;36.26;40.29;100325.29;1664997;84;22724;-62
2022/06/29 07:07:37;;;;;;;15.83;7.85;;;;;;;36.54;39.52;100324.55;1705087;83;21061;-57
2022/06/29 07:10:06;;;;;;;6.25;4.75;;;;;;;36.77;39.57;100326.55;1697817;83;20989;-62
2022/06/29 07:12:34;;;;;;;9.30;5.37;;;;;;;37.08;38.87;100324.23;1689753;84;21030;-57
2022/06/29 07:15:01;;;;;;;7.35;4.28;;;;;;;37.43;37.47;100325.48;1699603;83;21024;-57
2022/06/29 07:17:29;;;;;;;7.92;4.33;;;;;;;37.44;36.44;100325.68;1700723;83;21177;-64
2022/06/29 07:19:57;;;;;;;5.85;4.15;;;;;;;37.38;35.97;100323.02;1689707;84;21945;-56
2022/06/29 07:22:25;;;;;;;7.35;3.87;;;;;;;37.04;35.70;100325.32;1708306;83;21067;-56
2022/06/29 07:24:52;;;;;;;5.33;3.92;;;;;;;36.58;37.28;100323.26;1691099;83;21004;-56
2022/06/29 07:27:21;;;;;;;5.10;4.55;;;;;;;36.41;38.76;100328.52;1708422;83;20993;-62
2022/06/29 07:29:52;;;;;;;5.90;3.40;;;;;;;36.49;38.42;100335.70;1694301;83;22186;-56
2022/06/29 07:32:17;;;;;;;5.55;3.45;;;;;;;36.56;36.37;100330.99;1692194;83;21039;-62
2022/06/29 07:34:44;;;;;;;6.55;3.95;;;;;;;36.38;36.38;100341.44;1693396;83;21107;-56
2022/06/29 07:37:11;;;;;;;4.62;3.25;;;;;;;36.31;37.93;100333.14;1696572;83;21507;-64
2022/06/29 07:39:38;;;;;;;4.28;3.08;;;;;;;36.47;37.55;100333.89;1667082;84;21636;-57
2022/06/29 07:42:07;;;;;;;5.67;3.42;;;;;;;36.59;34.88;100342.48;1695260;83;21255;-64
2022/06/29 07:44:34;;;;;;;8.30;3.00;;;;;;;36.64;34.97;100337.35;1711541;83;21568;-57
2022/06/29 07:47:01;;;;;;;4.35;3.08;;;;;;;36.75;34.74;100320.70;1708892;83;20941;-56
2022/06/29 07:49:28;;;;;;;4.92;3.33;;;;;;;36.82;35.01;100326.23;1707078;83;21012;-56
2022/06/29 07:51:55;;;;;;;6.60;3.37;;;;;;;37.16;33.01;100322.43;1706873;83;21047;-56
2022/06/29 07:54:23;;;;;;;4.45;2.65;;;;;;;37.34;33.00;100327.61;1713684;83;21210;-57
2022/06/29 07:56:50;;;;;;;4.00;2.33;;;;;;;37.44;30.97;100325.68;1708178;83;22146;-56
2022/06/29 07:59:18;;;;;;;2.95;2.50;;;;;;;37.12;29.20;100325.66;1700649;83;21511;-62
2022/06/29 08:01:45;;;;;;;3.70;2.35;;;;;;;36.83;30.60;100321.05;1701809;83;22508;-58
2022/06/29 08:04:12;;;;;;;5.53;2.80;;;;;;;36.99;31.05;100332.63;1706158;83;21086;-57
2022/06/29 08:06:40;;;;;;;5.50;3.02;;;;;;;37.20;30.42;100330.07;1693244;83;21155;-57
2022/06/29 08:09:07;;;;;;;5.25;2.55;;;;;;;37.21;29.60;100333.80;1717444;83;21078;-57
2022/06/29 08:11:34;;;;;;;3.58;2.60;;;;;;;36.99;30.65;100325.83;1704313;83;21011;-62
2022/06/29 08:14:02;;;;;;;5.80;3.17;;;;;;;37.04;30.64;100323.96;1716338;83;21032;-57
2022/06/29 08:16:29;;;;;;;3.52;2.60;;;;;;;37.33;30.84;100325.27;1712852;83;20999;-57
2022/06/29 08:18:56;;;;;;;3.85;2.42;;;;;;;37.67;28.71;100330.31;1715179;83;21849;-60
2022/06/29 08:21:24;;;;;;;4.08;2.20;;;;;;;37.50;28.69;100328.28;1700605;83;21442;-57
2022/06/29 08:23:51;;;;;;;4.03;2.80;;;;;;;37.22;28.58;100324.50;1711295;83;20916;-66
2022/06/29 08:26:18;;;;;;;2.87;2.50;;;;;;;36.82;29.12;100326.23;1701341;83;21070;-56
2022/06/29 08:28:45;;;;;;;3.62;2.87;;;;;;;36.38;30.21;100329.23;1702225;83;21040;-58
2022/06/29 08:31:13;;;;;;;3.60;2.60;;;;;;;35.91;30.72;100333.38;1706151;83;21364;-65
2022/06/29 08:33:40;;;;;;;5.08;2.35;;;;;;;35.64;31.00;100321.50;1702148;83;21801;-64
2022/06/29 08:36:08;;;;;;;3.10;2.75;;;;;;;35.72;30.06;100325.95;1712754;83;21068;-57
2022/06/29 08:38:35;;;;;;;5.28;3.10;;;;;;;35.78;31.10;100329.98;1705760;83;21242;-56
2022/06/29 08:41:01;;;;;;;3.67;2.70;;;;;;;35.82;31.96;100315.36;1699445;83;21702;-62
2022/06/29 08:43:30;;;;;;;4.17;2.90;;;;;;;35.91;30.54;100312.45;1682120;84;21458;-57
2022/06/29 08:45:57;;;;;;;6.35;2.80;;;;;;;35.93;30.07;100308.83;1695678;83;21015;-65
2022/06/29 08:48:25;;;;;;;4.55;2.52;;;;;;;35.84;30.19;100306.89;1671734;84;21609;-57
2022/06/29 08:50:55;;;;;;;3.95;3.00;;;;;;;35.71;30.60;100305.41;1689536;84;21564;-56
2022/06/29 08:53:23;;;;;;;5.50;3.15;;;;;;;35.46;30.64;100305.58;1699601;83;21538;-56
2022/06/29 08:55:52;;;;;;;3.95;3.10;;;;;;;35.58;30.50;100302.80;1689724;84;22300;-57
2022/06/29 08:58:24;;;;;;;4.78;3.30;;;;;;;35.65;31.21;100301.37;1700488;83;20993;-57
2022/06/29 09:00:53;;;;;;;4.92;2.85;;;;;;;35.95;31.92;100300.33;1676737;84;21008;-57
2022/06/29 09:03:21;;;;;;;4.85;2.75;;;;;;;36.36;30.73;100304.92;1691044;83;21553;-57
2022/06/29 09:05:54;;;;;;;2.98;2.35;;;;;;;36.51;28.99;100299.45;1694609;83;21114;-56
2022/06/29 09:08:22;;;;;;;2.58;2.20;;;;;;;36.53;30.13;100299.90;1710594;82;21262;-57
2022/06/29 09:10:49;;;;;;;5.67;2.87;;;;;;;36.74;30.70;100296.02;1715577;82;21073;-65
2022/06/29 09:13:23;;;;;;;3.92;2.77;;;;;;;37.04;29.97;100296.79;1699667;82;21055;-56
2022/06/29 09:15:58;;;;;;;4.08;2.60;;;;;;;37.35;29.36;100294.41;1720136;82;21082;-65
2022/06/29 09:18:31;;;;;;;4.33;2.77;;;;;;;37.76;27.54;100290.02;1717656;82;21329;-58
2022/06/29 09:21:01;;;;;;;3.37;2.42;;;;;;;37.80;28.49;100293.58;1707582;82;21170;-58
2022/06/29 09:23:31;;;;;;;4.22;2.75;;;;;;;37.86;27.70;100288.05;1723852;82;21494;-60
2022/06/29 09:25:59;;;;;;;4.47;2.67;;;;;;;37.61;27.22;100284.16;1707537;82;21138;-57
2022/06/29 09:28:28;;;;;;;4.22;2.85;;;;;;;37.28;28.41;100280.14;1723444;82;21045;-58
2022/06/29 09:30:56;;;;;;;3.55;2.60;;;;;;;37.13;28.52;100278.33;1716767;82;21466;-58
2022/06/29 09:33:25;;;;;;;3.65;2.95;;;;;;;37.36;28.72;100287.26;1708765;82;21164;-60
2022/06/29 09:36:10;;;;;;;3.30;2.33;;;;;;;37.46;29.34;100286.66;1720259;82;21145;-57
2022/06/29 09:38:37;;;;;;;3.27;2.08;;;;;;;37.58;28.62;100282.17;1705626;82;21122;-65
2022/06/29 09:41:16;;;;;;;5.42;2.50;;;;;;;37.74;28.11;100280.10;1702884;82;38410;-65
2022/06/29 09:43:46;;;;;;;3.12;1.85;;;;;;;37.83;27.87;100278.47;1715150;82;21292;-58
2022/06/29 09:46:15;;;;;;;3.98;2.37;;;;;;;37.79;28.11;100279.00;1711586;82;21221;-57
2022/06/29 09:48:43;;;;;;;3.37;2.62;;;;;;;37.56;28.39;100277.11;1713667;82;21584;-57
2022/06/29 09:54:06;;;;;;;3.62;2.17;;;;;;;37.52;27.30;100274.91;1717719;82;21049;-65
2022/06/29 09:56:34;;;;;;;4.20;2.50;;;;;;;37.01;27.54;100282.80;1708321;82;20995;-65
2022/06/29 09:59:02;;;;;;;4.62;2.80;;;;;;;36.98;28.16;100273.22;1717348;82;22013;-57
2022/06/29 10:04:16;;;;;;;7.10;6.33;;;;;;;37.26;28.38;100276.41;1720744;82;21078;-59
2022/06/29 10:06:45;;;;;;;6.22;5.00;;;;;;;37.22;27.77;100276.14;1722017;82;21020;-58
2022/06/29 10:09:12;;;;;;;5.50;4.17;;;;;;;37.10;27.32;100289.34;1684088;83;21552;-59
2022/06/29 10:15:09;;;;;;;5.40;4.42;;;;;;;37.04;27.77;100282.62;1677148;85;21082;-61
2022/06/29 10:17:54;;;;;;;4.20;2.95;;;;;;;37.30;27.14;100277.83;1676217;83;21489;-63
2022/06/29 10:20:45;;;;;;;3.55;2.85;;;;;;;37.33;26.69;100278.47;1659174;83;21003;-59
2022/06/29 10:23:50;;;;;;;4.17;2.90;;;;;;;37.05;28.76;100279.33;1604349;85;21060;-59
2022/06/29 10:26:37;;;;;;;7.33;6.58;;;;;;;37.08;28.70;100275.89;1668412;85;21209;-57
2022/06/29 10:29:11;;;;;;;11.85;8.40;;;;;;;37.19;26.99;100268.13;1690363;84;20980;-59
2022/06/29 10:31:59;;;;;;;11.20;8.98;;;;;;;37.05;27.36;100269.23;1694519;83;21021;-57
2022/06/29 10:37:22;;;;;;;14.68;9.85;;;;;;;37.32;28.53;100274.77;1656552;85;21513;-58
2022/06/29 10:39:54;;;;;;;12.28;7.08;;;;;;;37.39;28.12;100271.59;1684362;85;21308;-58
2022/06/29 10:45:24;;;;;;;6.12;4.30;;;;;;;37.48;27.91;100274.85;1690200;83;21856;-57
2022/06/29 10:48:06;;;;;;;8.15;5.97;;;;;;;37.79;27.80;100272.19;1639451;85;21052;-57
2022/06/29 10:50:33;;;;;;;7.12;5.00;;;;;;;37.76;27.13;100271.56;1664098;84;20964;-59
2022/06/29 10:53:11;;;;;;;3.60;2.67;;;;;;;37.77;26.76;100271.18;1697207;83;21779;-59
2022/06/29 10:55:50;;;;;;;4.33;2.85;;;;;;;37.49;27.59;100269.62;1702847;83;21027;-57
2022/06/29 10:58:20;;;;;;;7.22;5.00;;;;;;;37.34;27.98;100270.52;1700555;83;21481;-58
2022/06/29 11:00:52;;;;;;;8.48;7.58;;;;;;;37.44;27.02;100263.14;1700166;83;21071;-57
2022/06/29 11:03:25;;;;;;;11.68;10.48;;;;;;;37.46;26.71;100259.46;1698269;83;21065;-57
2022/06/29 11:17:01;;;;;;;8.90;7.90;;;;;;;37.16;27.15;100260.70;1693209;83;21122;-58
2022/06/29 11:19:32;;;;;;;11.22;10.13;;;;;;;36.98;27.86;100256.34;1680140;85;21624;-57
2022/06/29 11:22:18;;;;;;;11.05;9.93;;;;;;;37.07;28.16;100253.95;1676786;85;20987;-59
2022/06/29 11:25:00;;;;;;;9.53;4.90;;;;;;;37.31;27.08;100257.64;1678461;83;21090;-63
2022/06/29 11:27:35;;;;;;;4.35;2.45;;;;;;;37.38;27.37;100248.24;1672306;84;21114;-56
2022/06/29 11:30:05;;;;;;;4.72;3.60;;;;;;;37.13;27.46;100261.45;1672801;83;21075;-57
2022/06/29 11:32:43;;;;;;;7.25;4.92;;;;;;;36.78;28.44;100262.34;1685272;85;22305;-58
2022/06/29 11:35:22;;;;;;;7.95;6.03;;;;;;;36.75;28.09;100261.72;1665489;85;21000;-56
2022/06/29 11:38:01;;;;;;;11.73;7.55;;;;;;;36.75;27.72;100256.86;1693910;83;21027;-57
2022/06/29 11:40:34;;;;;;;7.80;7.00;;;;;;;36.87;28.48;100257.27;1703525;82;21516;-56
2022/06/29 11:43:13;;;;;;;5.25;4.75;;;;;;;37.16;28.29;100258.55;1676264;84;21123;-58
2022/06/29 11:45:45;;;;;;;6.47;4.30;;;;;;;37.21;27.78;100256.91;1684844;83;21743;-60
2022/06/29 11:48:21;;;;;;;4.83;4.10;;;;;;;37.19;28.22;100255.13;1665305;85;21067;-56
2022/06/29 11:50:57;;;;;;;6.15;3.75;;;;;;;37.06;26.98;100251.03;1671571;83;21066;-57
2022/06/29 11:53:49;;;;;;;4.87;3.72;;;;;;;36.96;27.64;100245.03;1674527;85;21368;-58
2022/06/29 11:56:28;;;;;;;5.50;4.00;;;;;;;36.84;27.99;100253.91;1647897;85;21074;-56
2022/06/29 11:59:02;;;;;;;4.17;3.22;;;;;;;36.74;28.31;100244.41;1702615;83;21166;-66
2022/06/29 12:01:26;;;;;;;7.75;5.10;;;;;;;36.26;27.47;100247.36;1686143;83;21053;-57
2022/06/29 12:03:56;;;;;;;7.67;4.62;;;;;;;36.02;27.85;100243.54;1691319;83;21491;-56